createdAt,value
2022-09-12T06:11:33.894Z,95175.00
2022-09-12T06:14:02.434Z,95179.25
2022-09-12T06:16:32.679Z,95174.53
2022-09-12T06:19:03.313Z,95185.66
2022-09-12T06:21:31.996Z,95180.44
2022-09-12T06:24:00.328Z,95177.59
2022-09-12T06:26:29.502Z,95169.47
2022-09-12T06:29:01.767Z,95176.94
2022-09-12T06:31:31.746Z,95184.84
2022-09-12T06:34:01.928Z,95178.72
2022-09-12T06:36:31.716Z,95174.75
2022-09-12T06:39:01.808Z,95169.56
2022-09-12T06:41:31.570Z,95169.63
2022-09-12T06:44:01.881Z,95172.81
2022-09-12T06:46:31.146Z,95171.25
2022-09-12T06:48:59.749Z,95163.34
2022-09-12T06:51:28.566Z,95159.69
2022-09-12T06:53:57.464Z,95157.03
2022-09-12T06:56:27.079Z,95157.03
2022-09-12T06:58:57.249Z,95155.91
2022-09-12T07:01:28.232Z,95158.22
2022-09-12T07:03:57.630Z,95160.06
2022-09-12T07:06:31.624Z,95164.19
2022-09-12T07:08:59.725Z,95173.44
2022-09-12T07:11:30.669Z,95167.69
2022-09-12T07:14:00.180Z,95174.84
2022-09-12T07:16:30.383Z,95175.94
2022-09-12T07:19:00.150Z,95170.69
2022-09-12T07:21:29.082Z,95168.09
2022-09-12T07:23:57.991Z,95165.97
2022-09-12T07:26:29.351Z,95172.63
2022-09-12T07:29:18.594Z,95165.50
2022-09-12T07:31:48.597Z,95160.25
2022-09-12T07:34:17.601Z,95154.94
2022-09-12T07:36:45.568Z,95162.88
2022-09-12T07:39:13.516Z,95158.09
2022-09-12T07:41:41.896Z,95164.44
2022-09-12T07:44:09.895Z,95164.44
2022-09-12T07:46:38.382Z,95160.69
2022-09-12T07:49:08.462Z,95155.94
2022-09-12T07:51:36.596Z,95161.19
2022-09-12T07:54:09.188Z,95168.06
2022-09-12T07:56:39.455Z,95171.72
2022-09-12T07:59:07.964Z,95171.47
2022-09-12T08:01:36.618Z,95166.44
2022-09-12T08:04:05.179Z,95171.72
2022-09-12T08:06:36.126Z,95167.47
2022-09-12T08:09:05.442Z,95172.19
2022-09-12T08:11:33.462Z,95164.22
2022-09-12T08:14:03.107Z,95162.16
2022-09-12T08:16:32.230Z,95166.34
2022-09-12T08:19:02.366Z,95161.59
2022-09-12T08:21:32.087Z,95164.28
2022-09-12T08:24:04.124Z,95172.19
2022-09-12T08:26:33.822Z,95159.47
2022-09-12T08:29:01.816Z,95171.16
2022-09-12T08:31:31.921Z,95166.88
2022-09-12T08:34:00.943Z,95167.13
2022-09-12T08:36:29.674Z,95165.00
2022-09-12T08:39:00.193Z,95171.56
2022-09-12T08:41:34.940Z,95168.13
2022-09-12T08:44:32.930Z,95158.38
2022-09-12T08:47:15.959Z,95159.38
2022-09-12T08:49:54.212Z,95168.31
2022-09-12T08:52:29.035Z,95169.09
2022-09-12T08:54:57.953Z,95174.09
2022-09-12T08:57:27.538Z,95184.66
2022-09-12T08:59:56.271Z,95179.31
2022-09-12T09:02:49.142Z,95180.41
2022-09-12T09:05:24.677Z,95179.31
2022-09-12T09:08:11.531Z,95179.28
2022-09-12T09:10:48.840Z,95171.28
2022-09-12T09:13:50.834Z,95168.06
2022-09-12T09:16:27.797Z,95177.56
2022-09-12T09:18:58.432Z,95170.06
2022-09-12T09:21:31.719Z,95165.78
2022-09-12T09:24:05.024Z,95165.75
2022-09-12T09:26:44.454Z,95158.81
2022-09-12T09:29:18.785Z,95164.03
2022-09-12T09:31:50.102Z,95160.31
2022-09-12T09:34:21.833Z,95161.34
2022-09-12T09:36:52.230Z,95156.44
2022-09-12T09:39:40.140Z,95160.09
2022-09-12T09:42:19.321Z,95161.16
2022-09-12T09:44:49.487Z,95167.56
2022-09-12T09:47:19.257Z,95168.03
2022-09-12T09:49:47.737Z,95157.31
2022-09-12T09:52:18.581Z,95155.88
2022-09-12T09:54:50.851Z,95153.53
2022-09-12T09:57:41.651Z,95153.97
2022-09-12T10:00:30.641Z,95146.94
2022-09-12T10:03:04.786Z,95147.41
2022-09-12T10:05:37.217Z,95150.50
2022-09-12T10:08:08.392Z,95145.59
2022-09-12T10:10:36.479Z,95149.25
2022-09-12T10:13:10.107Z,95134.81
2022-09-12T10:15:39.636Z,95142.16
2022-09-12T10:18:07.576Z,95135.69
2022-09-12T10:20:37.136Z,95129.03
2022-09-12T10:23:24.650Z,95127.06
2022-09-12T10:25:56.661Z,95130.72
2022-09-12T10:28:31.615Z,95119.03
2022-09-12T10:31:02.945Z,95122.06
2022-09-12T10:33:31.677Z,95128.31
2022-09-12T10:35:59.912Z,95133.56
2022-09-12T10:38:29.840Z,95129.44
2022-09-12T10:41:00.312Z,95129.06
2022-09-12T10:43:31.114Z,95120.44
2022-09-12T10:46:21.257Z,95122.00
2022-09-12T10:48:50.236Z,95119.84
2022-09-12T10:51:28.380Z,95120.25
2022-09-12T10:53:59.332Z,95119.66
2022-09-12T10:56:30.645Z,95103.16
2022-09-12T10:59:12.884Z,95109.84
2022-09-12T11:01:47.196Z,95105.47
2022-09-12T11:04:42.536Z,95108.31
2022-09-12T11:07:34.228Z,95105.38
2022-09-12T11:10:13.852Z,95105.50
2022-09-12T11:12:50.137Z,95101.16
2022-09-12T11:15:37.910Z,95106.47
2022-09-12T11:18:17.312Z,95098.50
2022-09-12T11:21:03.433Z,95101.53
2022-09-12T11:23:45.322Z,95099.28
2022-09-12T11:26:25.469Z,95088.41
2022-09-12T11:29:05.421Z,95091.00
2022-09-12T11:31:57.909Z,95081.00
2022-09-12T11:34:37.570Z,95087.22
2022-09-12T11:37:25.695Z,95079.91
2022-09-12T11:39:56.087Z,95087.91
2022-09-12T11:42:31.244Z,95086.59
2022-09-12T11:45:06.814Z,95087.09
2022-09-12T11:47:36.226Z,95089.53
2022-09-12T11:50:19.049Z,95080.94
2022-09-12T11:52:46.987Z,95092.03
2022-09-12T11:55:19.500Z,95083.13
2022-09-12T11:57:54.055Z,95084.25
2022-09-12T12:00:26.668Z,95078.16
2022-09-12T12:03:04.271Z,95087.00
2022-09-12T12:05:43.309Z,95084.53
2022-09-12T12:08:12.251Z,95078.44
2022-09-12T12:10:42.441Z,95079.50
2022-09-12T12:13:20.094Z,95074.16
2022-09-12T12:15:51.647Z,95065.09
2022-09-12T12:18:24.603Z,95064.59
2022-09-12T12:20:55.565Z,95074.81
2022-09-12T12:23:25.490Z,95074.78
2022-09-12T12:25:56.568Z,95061.78
2022-09-12T12:28:58.904Z,95069.31
2022-09-12T12:31:26.958Z,95068.56
2022-09-12T12:34:23.956Z,95057.94
2022-09-12T12:36:53.337Z,95067.81
2022-09-12T12:40:04.846Z,95066.75
2022-09-12T12:43:08.056Z,95065.25
2022-09-12T12:46:02.851Z,95063.84
2022-09-12T12:48:44.350Z,95060.09
2022-09-12T12:51:32.999Z,95058.25
2022-09-12T12:54:04.407Z,95055.31
2022-09-12T12:56:40.502Z,95059.53
2022-09-12T12:59:18.750Z,95053.72
2022-09-12T13:01:54.953Z,95049.50
2022-09-12T13:04:26.226Z,95038.19
2022-09-12T13:07:05.809Z,95036.31
2022-09-12T13:09:40.930Z,95027.56
2022-09-12T13:12:13.462Z,95023.47
2022-09-12T13:14:55.725Z,95025.97
2022-09-12T13:17:29.061Z,95020.53
2022-09-12T13:20:26.794Z,95018.00
2022-09-12T13:22:55.864Z,95015.59
2022-09-12T13:25:29.263Z,95015.00
2022-09-12T13:28:02.978Z,95012.91
2022-09-12T13:30:33.544Z,95008.63
2022-09-12T13:33:11.197Z,95011.13
2022-09-12T13:35:52.855Z,95015.06
2022-09-12T13:38:31.574Z,95011.91
2022-09-12T13:41:20.032Z,95010.28
2022-09-12T13:43:49.807Z,95006.63
2022-09-12T13:46:22.509Z,95009.16
2022-09-12T13:48:50.582Z,95004.53
2022-09-12T13:51:25.826Z,95003.69
2022-09-12T13:53:56.685Z,94993.28
2022-09-12T13:56:26.131Z,94990.72
2022-09-12T13:58:56.845Z,94991.81
2022-09-12T14:01:26.310Z,94984.69
2022-09-12T14:04:13.562Z,94983.78
2022-09-12T14:06:48.840Z,94988.38
2022-09-12T14:09:25.337Z,94983.31
2022-09-12T14:11:55.862Z,94974.41
2022-09-12T14:14:31.280Z,94981.78
2022-09-12T14:17:00.318Z,94973.09
2022-09-12T14:19:29.250Z,94968.50
2022-09-12T14:21:58.522Z,94972.88
2022-09-12T14:24:26.806Z,94968.25
2022-09-12T14:26:57.862Z,94963.09
2022-09-12T14:29:26.415Z,94971.84
2022-09-12T14:32:05.142Z,94971.91
2022-09-12T14:34:33.076Z,94965.63
2022-09-12T14:37:01.134Z,94971.22
2022-09-12T14:39:33.103Z,94969.44
2022-09-12T14:42:07.944Z,94962.41
2022-09-12T14:44:37.221Z,94971.81
2022-09-12T14:47:16.085Z,94966.19
2022-09-12T14:49:44.261Z,94958.59
2022-09-12T14:52:27.970Z,94957.50
2022-09-12T14:55:00.745Z,94952.81
2022-09-12T14:57:36.534Z,94945.88
2022-09-12T15:00:20.213Z,94947.22
2022-09-12T15:02:49.534Z,94963.31
2022-09-12T15:05:28.568Z,94959.84
2022-09-12T15:07:59.551Z,94952.94
2022-09-12T15:10:31.400Z,94954.28
2022-09-12T15:13:17.460Z,94949.69
2022-09-12T15:15:47.487Z,94949.94
2022-09-12T15:18:15.692Z,94955.06
2022-09-12T15:20:45.594Z,94951.75
2022-09-12T15:23:20.195Z,94954.44
2022-09-12T15:25:48.172Z,94948.38
2022-09-12T15:28:23.738Z,94952.44
2022-09-12T15:30:54.309Z,94946.38
2022-09-12T15:33:25.220Z,94943.69
2022-09-12T15:35:54.291Z,94939.00
2022-09-12T15:38:26.354Z,94946.94
2022-09-12T15:40:55.844Z,94944.38
2022-09-12T15:43:26.322Z,94948.38
2022-09-12T15:45:54.378Z,94945.38
2022-09-12T15:48:22.414Z,94942.59
2022-09-12T15:50:50.401Z,94939.44
2022-09-12T15:53:18.647Z,94938.31
2022-09-12T15:55:46.827Z,94937.22
2022-09-12T15:58:14.829Z,94938.09
2022-09-12T16:00:44.242Z,94937.91
2022-09-12T21:33:47.576Z,94938.75
2022-09-12T21:36:15.848Z,94946.72
2022-09-12T21:38:43.850Z,94947.22
2022-09-12T21:41:13.073Z,94949.28
2022-09-12T21:43:41.564Z,94949.28
2022-09-12T21:46:10.361Z,94943.47
2022-09-12T21:48:38.469Z,94944.66
2022-09-12T21:51:08.335Z,94943.66
2022-09-12T21:53:37.448Z,94935.41
2022-09-12T21:56:07.175Z,94939.94
2022-09-12T21:58:35.573Z,94951.75
2022-09-12T22:01:04.686Z,94945.63
2022-09-12T22:03:33.061Z,94937.66
2022-09-12T22:06:02.614Z,94936.88
2022-09-12T22:08:33.647Z,94930.78
2022-09-12T22:11:03.382Z,94929.63
2022-09-12T22:13:32.377Z,94937.50
2022-09-12T22:16:03.471Z,94935.94
2022-09-12T22:18:34.201Z,94928.13
2022-09-12T22:21:04.554Z,94935.13
2022-09-12T22:23:51.458Z,94935.19
2022-09-12T22:26:19.594Z,94925.28
2022-09-12T22:28:48.238Z,94936.88
2022-09-12T22:31:16.991Z,94940.06
2022-09-12T22:33:45.592Z,94932.03
2022-09-12T22:36:14.530Z,94931.34
2022-09-12T22:38:43.926Z,94934.78
2022-09-12T22:41:13.232Z,94936.34
2022-09-12T22:43:41.408Z,94931.84
2022-09-12T22:46:11.038Z,94928.31
2022-09-12T22:48:39.470Z,94926.16
2022-09-12T22:51:08.367Z,94928.31
2022-09-12T22:53:36.724Z,94924.09
2022-09-12T22:56:07.417Z,94935.75
2022-09-12T22:58:37.435Z,94945.38
2022-09-12T23:01:06.086Z,94944.34
2022-09-12T23:03:34.604Z,94953.50
2022-09-12T23:06:03.110Z,94951.38
2022-09-12T23:08:32.102Z,94952.94
2022-09-12T23:11:03.439Z,94956.25
2022-09-12T23:13:33.408Z,94960.97
2022-09-12T23:16:03.040Z,94964.13
2022-09-12T23:18:31.374Z,94966.25
2022-09-12T23:21:00.785Z,94968.41
2022-09-12T23:23:28.805Z,94975.28
2022-09-12T23:26:07.971Z,94974.81
2022-09-12T23:28:38.230Z,94976.97
2022-09-12T23:31:07.700Z,94982.28
2022-09-12T23:33:36.160Z,94988.06
2022-09-12T23:36:06.268Z,94980.81
2022-09-12T23:38:35.553Z,94985.13
2022-09-12T23:41:05.134Z,94989.38
2022-09-12T23:43:34.087Z,94988.59
2022-09-12T23:46:04.730Z,94987.81
2022-09-12T23:48:34.130Z,94983.28
2022-09-12T23:51:02.223Z,94987.81
2022-09-12T23:53:31.158Z,94980.94
2022-09-12T23:55:59.566Z,94989.38
2022-09-12T23:58:27.572Z,94987.53
